sensor_id;sensor_type;location;lat;lon;timestamp;P1;durP1;ratioP1;P2;durP2;ratioP2
25980;SDS011;13772;52.996;9.124;2023-07-30T08:03:24;16.70;;;3.90;;
25980;SDS011;13772;52.996;9.124;2023-07-30T08:05:52;14.13;;;3.80;;
25980;SDS011;13772;52.996;9.124;2023-07-30T08:08:17;13.05;;;3.95;;
25980;SDS011;13772;52.996;9.124;2023-07-30T08:10:42;17.10;;;4.00;;
25980;SDS011;13772;52.996;9.124;2023-07-30T08:13:10;12.70;;;4.13;;
25980;SDS011;13772;52.996;9.124;2023-07-30T08:15:35;14.57;;;4.47;;
25980;SDS011;13772;52.996;9.124;2023-07-30T08:18:01;15.02;;;3.88;;
25980;SDS011;13772;52.996;9.124;2023-07-30T08:20:26;17.73;;;4.78;;
25980;SDS011;13772;52.996;9.124;2023-07-30T08:22:51;8.10;;;3.08;;
25980;SDS011;13772;52.996;9.124;2023-07-30T08:25:16;14.32;;;4.75;;
25980;SDS011;13772;52.996;9.124;2023-07-30T08:27:42;14.98;;;4.15;;
25980;SDS011;13772;52.996;9.124;2023-07-30T08:30:07;13.75;;;3.78;;
25980;SDS011;13772;52.996;9.124;2023-07-30T08:32:33;10.75;;;3.35;;
25980;SDS011;13772;52.996;9.124;2023-07-30T08:34:58;15.95;;;3.88;;
25980;SDS011;13772;52.996;9.124;2023-07-30T08:37:23;9.65;;;3.00;;
25980;SDS011;13772;52.996;9.124;2023-07-30T08:39:49;12.63;;;3.55;;
25980;SDS011;13772;52.996;9.124;2023-07-30T08:42:14;10.70;;;2.92;;
25980;SDS011;13772;52.996;9.124;2023-07-30T08:44:39;14.40;;;3.40;;
25980;SDS011;13772;52.996;9.124;2023-07-30T08:47:05;10.10;;;3.08;;
25980;SDS011;13772;52.996;9.124;2023-07-30T08:49:30;13.13;;;3.28;;
25980;SDS011;13772;52.996;9.124;2023-07-30T08:51:58;11.57;;;2.92;;
25980;SDS011;13772;52.996;9.124;2023-07-30T08:54:23;10.73;;;3.03;;
25980;SDS011;13772;52.996;9.124;2023-07-30T08:56:49;13.55;;;3.00;;
25980;SDS011;13772;52.996;9.124;2023-07-30T08:59:15;9.18;;;3.22;;
25980;SDS011;13772;52.996;9.124;2023-07-30T09:01:40;11.77;;;3.28;;
25980;SDS011;13772;52.996;9.124;2023-07-30T09:04:06;8.98;;;3.03;;
25980;SDS011;13772;52.996;9.124;2023-07-30T09:06:32;11.55;;;3.80;;
25980;SDS011;13772;52.996;9.124;2023-07-30T09:08:57;9.95;;;2.85;;
25980;SDS011;13772;52.996;9.124;2023-07-30T09:11:25;14.07;;;3.55;;
25980;SDS011;13772;52.996;9.124;2023-07-30T09:13:52;12.07;;;4.15;;
25980;SDS011;13772;52.996;9.124;2023-07-30T09:16:18;12.18;;;3.83;;
25980;SDS011;13772;52.996;9.124;2023-07-30T09:18:44;10.07;;;3.38;;
25980;SDS011;13772;52.996;9.124;2023-07-30T09:21:10;14.55;;;3.78;;
25980;SDS011;13772;52.996;9.124;2023-07-30T09:23:39;12.80;;;3.78;;
25980;SDS011;13772;52.996;9.124;2023-07-30T09:26:04;11.07;;;3.20;;
25980;SDS011;13772;52.996;9.124;2023-07-30T09:28:32;15.55;;;4.55;;
25980;SDS011;13772;52.996;9.124;2023-07-30T09:31:04;9.68;;;3.40;;
25980;SDS011;13772;52.996;9.124;2023-07-30T09:33:33;14.30;;;4.05;;
25980;SDS011;13772;52.996;9.124;2023-07-30T09:36:02;10.55;;;3.88;;
25980;SDS011;13772;52.996;9.124;2023-07-30T09:38:27;10.98;;;3.70;;
25980;SDS011;13772;52.996;9.124;2023-07-30T09:40:59;12.57;;;3.92;;
25980;SDS011;13772;52.996;9.124;2023-07-30T09:43:28;13.27;;;3.65;;
25980;SDS011;13772;52.996;9.124;2023-07-30T09:45:53;11.23;;;3.72;;
25980;SDS011;13772;52.996;9.124;2023-07-30T09:48:18;13.18;;;3.38;;
25980;SDS011;13772;52.996;9.124;2023-07-30T09:50:44;9.50;;;3.30;;
25980;SDS011;13772;52.996;9.124;2023-07-30T09:53:09;17.42;;;3.78;;
25980;SDS011;13772;52.996;9.124;2023-07-30T09:55:35;12.52;;;3.78;;
25980;SDS011;13772;52.996;9.124;2023-07-30T09:58:00;13.25;;;3.83;;
25980;SDS011;13772;52.996;9.124;2023-07-30T10:00:26;12.30;;;3.63;;
25980;SDS011;13772;52.996;9.124;2023-07-30T10:02:52;12.15;;;4.05;;
25980;SDS011;13772;52.996;9.124;2023-07-30T10:05:18;14.40;;;4.65;;
25980;SDS011;13772;52.996;9.124;2023-07-30T10:08:17;14.25;;;5.03;;
25980;SDS011;13772;52.996;9.124;2023-07-30T10:10:35;12.35;;;4.35;;
25980;SDS011;13772;52.996;9.124;2023-07-30T10:13:01;13.90;;;4.30;;
25980;SDS011;13772;52.996;9.124;2023-07-30T10:15:28;12.07;;;3.80;;
25980;SDS011;13772;52.996;9.124;2023-07-30T10:17:55;18.13;;;4.75;;
25980;SDS011;13772;52.996;9.124;2023-07-30T10:20:25;15.02;;;4.95;;
25980;SDS011;13772;52.996;9.124;2023-07-30T10:22:55;15.68;;;4.05;;
25980;SDS011;13772;52.996;9.124;2023-07-30T10:25:21;13.45;;;4.32;;
25980;SDS011;13772;52.996;9.124;2023-07-30T10:27:48;15.02;;;5.40;;
25980;SDS011;13772;52.996;9.124;2023-07-30T10:30:15;13.80;;;4.97;;
25980;SDS011;13772;52.996;9.124;2023-07-30T10:32:41;12.65;;;4.45;;
25980;SDS011;13772;52.996;9.124;2023-07-30T10:35:06;12.52;;;4.22;;
25980;SDS011;13772;52.996;9.124;2023-07-30T10:37:32;12.93;;;4.43;;
25980;SDS011;13772;52.996;9.124;2023-07-30T10:39:57;12.27;;;3.85;;
25980;SDS011;13772;52.996;9.124;2023-07-30T10:42:22;15.25;;;4.90;;
25980;SDS011;13772;52.996;9.124;2023-07-30T10:44:48;12.95;;;4.28;;
25980;SDS011;13772;52.996;9.124;2023-07-30T10:47:14;12.43;;;4.78;;
25980;SDS011;13772;52.996;9.124;2023-07-30T10:49:39;12.90;;;4.88;;
25980;SDS011;13772;52.996;9.124;2023-07-30T10:52:15;15.40;;;5.22;;
25980;SDS011;13772;52.996;9.124;2023-07-30T10:54:41;11.32;;;4.05;;
25980;SDS011;13772;52.996;9.124;2023-07-30T10:57:06;10.82;;;4.03;;
25980;SDS011;13772;52.996;9.124;2023-07-30T10:59:35;11.38;;;4.03;;
25980;SDS011;13772;52.996;9.124;2023-07-30T11:02:01;10.63;;;3.72;;
25980;SDS011;13772;52.996;9.124;2023-07-30T11:04:26;13.80;;;4.28;;
25980;SDS011;13772;52.996;9.124;2023-07-30T11:06:52;13.52;;;4.80;;
25980;SDS011;13772;52.996;9.124;2023-07-30T11:09:18;12.63;;;3.78;;
25980;SDS011;13772;52.996;9.124;2023-07-30T11:11:44;8.63;;;3.50;;
25980;SDS011;13772;52.996;9.124;2023-07-30T11:14:14;12.73;;;3.88;;
25980;SDS011;13772;52.996;9.124;2023-07-30T11:16:46;13.25;;;4.10;;
25980;SDS011;13772;52.996;9.124;2023-07-30T11:19:11;14.18;;;4.38;;
25980;SDS011;13772;52.996;9.124;2023-07-30T11:21:43;10.73;;;3.35;;
25980;SDS011;13772;52.996;9.124;2023-07-30T11:24:09;8.50;;;2.97;;
25980;SDS011;13772;52.996;9.124;2023-07-30T11:26:34;9.27;;;4.13;;
25980;SDS011;13772;52.996;9.124;2023-07-30T11:28:59;13.68;;;3.90;;
25980;SDS011;13772;52.996;9.124;2023-07-30T11:31:25;11.13;;;3.70;;
25980;SDS011;13772;52.996;9.124;2023-07-30T11:33:52;9.85;;;3.53;;
25980;SDS011;13772;52.996;9.124;2023-07-30T11:36:21;10.73;;;3.28;;
25980;SDS011;13772;52.996;9.124;2023-07-30T11:38:47;13.43;;;3.15;;
25980;SDS011;13772;52.996;9.124;2023-07-30T11:41:13;9.98;;;3.28;;
25980;SDS011;13772;52.996;9.124;2023-07-30T11:43:39;11.55;;;3.00;;
25980;SDS011;13772;52.996;9.124;2023-07-30T11:46:12;9.43;;;3.17;;
25980;SDS011;13772;52.996;9.124;2023-07-30T11:48:38;10.55;;;3.03;;
25980;SDS011;13772;52.996;9.124;2023-07-30T11:51:03;9.23;;;3.40;;
25980;SDS011;13772;52.996;9.124;2023-07-30T11:56:18;12.07;;;3.60;;
25980;SDS011;13772;52.996;9.124;2023-07-30T11:58:43;6.35;;;2.80;;
25980;SDS011;13772;52.996;9.124;2023-07-30T12:01:09;8.02;;;3.33;;
25980;SDS011;13772;52.996;9.124;2023-07-30T12:03:34;11.07;;;3.30;;
25980;SDS011;13772;52.996;9.124;2023-07-30T12:06:03;7.68;;;3.05;;
25980;SDS011;13772;52.996;9.124;2023-07-30T12:08:29;7.50;;;2.95;;
25980;SDS011;13772;52.996;9.124;2023-07-30T12:10:54;10.25;;;3.03;;
25980;SDS011;13772;52.996;9.124;2023-07-30T12:13:21;12.30;;;3.05;;
25980;SDS011;13772;52.996;9.124;2023-07-30T12:15:53;9.77;;;3.30;;
25980;SDS011;13772;52.996;9.124;2023-07-30T12:18:19;8.27;;;2.95;;
25980;SDS011;13772;52.996;9.124;2023-07-30T12:20:44;7.78;;;2.53;;
25980;SDS011;13772;52.996;9.124;2023-07-30T12:23:10;8.48;;;2.60;;
25980;SDS011;13772;52.996;9.124;2023-07-30T12:25:35;10.63;;;2.67;;
25980;SDS011;13772;52.996;9.124;2023-07-30T12:28:00;7.47;;;2.78;;
25980;SDS011;13772;52.996;9.124;2023-07-30T12:30:26;8.65;;;2.83;;
25980;SDS011;13772;52.996;9.124;2023-07-30T12:32:52;9.02;;;2.78;;
25980;SDS011;13772;52.996;9.124;2023-07-30T12:35:18;10.95;;;3.25;;
25980;SDS011;13772;52.996;9.124;2023-07-30T12:37:43;8.75;;;2.90;;
25980;SDS011;13772;52.996;9.124;2023-07-30T12:40:08;9.35;;;3.00;;
25980;SDS011;13772;52.996;9.124;2023-07-30T12:42:34;6.93;;;2.50;;
25980;SDS011;13772;52.996;9.124;2023-07-30T12:44:59;8.88;;;3.03;;
25980;SDS011;13772;52.996;9.124;2023-07-30T12:47:24;6.45;;;2.58;;
25980;SDS011;13772;52.996;9.124;2023-07-30T12:49:49;8.90;;;2.28;;
25980;SDS011;13772;52.996;9.124;2023-07-30T12:52:15;7.00;;;1.75;;
25980;SDS011;13772;52.996;9.124;2023-07-30T12:54:40;6.50;;;1.65;;
25980;SDS011;13772;52.996;9.124;2023-07-30T12:57:05;4.78;;;1.60;;
25980;SDS011;13772;52.996;9.124;2023-07-30T12:59:31;5.78;;;2.08;;
25980;SDS011;13772;52.996;9.124;2023-07-30T13:01:56;6.07;;;2.00;;
25980;SDS011;13772;52.996;9.124;2023-07-30T13:04:21;8.73;;;1.88;;
25980;SDS011;13772;52.996;9.124;2023-07-30T13:06:46;4.65;;;1.80;;
25980;SDS011;13772;52.996;9.124;2023-07-30T13:09:12;5.32;;;1.90;;
25980;SDS011;13772;52.996;9.124;2023-07-30T13:11:37;7.82;;;2.42;;
25980;SDS011;13772;52.996;9.124;2023-07-30T13:14:02;5.20;;;2.22;;
25980;SDS011;13772;52.996;9.124;2023-07-30T13:16:28;5.22;;;2.25;;
25980;SDS011;13772;52.996;9.124;2023-07-30T13:18:53;4.68;;;2.10;;
25980;SDS011;13772;52.996;9.124;2023-07-30T13:21:22;4.03;;;2.20;;
25980;SDS011;13772;52.996;9.124;2023-07-30T13:23:47;6.85;;;2.00;;
25980;SDS011;13772;52.996;9.124;2023-07-30T13:26:12;3.88;;;1.63;;
25980;SDS011;13772;52.996;9.124;2023-07-30T13:28:37;5.22;;;2.10;;
25980;SDS011;13772;52.996;9.124;2023-07-30T13:31:03;5.00;;;1.88;;
25980;SDS011;13772;52.996;9.124;2023-07-30T13:33:28;6.47;;;2.30;;
25980;SDS011;13772;52.996;9.124;2023-07-30T13:35:53;8.95;;;2.78;;
25980;SDS011;13772;52.996;9.124;2023-07-30T13:38:18;8.05;;;2.67;;
25980;SDS011;13772;52.996;9.124;2023-07-30T13:40:46;6.47;;;2.38;;
25980;SDS011;13772;52.996;9.124;2023-07-30T13:43:11;6.53;;;2.38;;
25980;SDS011;13772;52.996;9.124;2023-07-30T13:45:37;6.82;;;2.72;;
25980;SDS011;13772;52.996;9.124;2023-07-30T13:48:02;6.80;;;2.20;;
25980;SDS011;13772;52.996;9.124;2023-07-30T13:50:27;5.40;;;1.85;;
25980;SDS011;13772;52.996;9.124;2023-07-30T13:52:53;6.13;;;2.30;;
25980;SDS011;13772;52.996;9.124;2023-07-30T13:55:18;5.45;;;2.17;;
25980;SDS011;13772;52.996;9.124;2023-07-30T13:57:45;7.60;;;2.05;;
25980;SDS011;13772;52.996;9.124;2023-07-30T14:00:10;6.10;;;1.90;;
25980;SDS011;13772;52.996;9.124;2023-07-30T14:02:35;8.63;;;2.03;;
25980;SDS011;13772;52.996;9.124;2023-07-30T14:05:01;8.00;;;2.03;;
25980;SDS011;13772;52.996;9.124;2023-07-30T14:07:26;5.28;;;1.60;;
25980;SDS011;13772;52.996;9.124;2023-07-30T14:09:51;4.35;;;1.70;;
25980;SDS011;13772;52.996;9.124;2023-07-30T14:12:16;6.32;;;1.73;;
25980;SDS011;13772;52.996;9.124;2023-07-30T14:14:42;5.75;;;1.50;;
25980;SDS011;13772;52.996;9.124;2023-07-30T14:17:07;8.43;;;1.88;;
25980;SDS011;13772;52.996;9.124;2023-07-30T14:19:32;6.30;;;1.88;;
25980;SDS011;13772;52.996;9.124;2023-07-30T14:21:58;7.13;;;1.90;;
25980;SDS011;13772;52.996;9.124;2023-07-30T14:24:23;6.60;;;1.85;;
25980;SDS011;13772;52.996;9.124;2023-07-30T14:26:49;5.68;;;1.73;;
25980;SDS011;13772;52.996;9.124;2023-07-30T14:29:14;6.30;;;1.65;;
25980;SDS011;13772;52.996;9.124;2023-07-30T14:31:39;5.38;;;1.58;;
25980;SDS011;13772;52.996;9.124;2023-07-30T14:34:05;4.75;;;1.50;;
25980;SDS011;13772;52.996;9.124;2023-07-30T14:36:30;6.15;;;1.63;;
25980;SDS011;13772;52.996;9.124;2023-07-30T14:38:55;4.78;;;1.42;;
25980;SDS011;13772;52.996;9.124;2023-07-30T14:41:20;5.03;;;1.40;;
25980;SDS011;13772;52.996;9.124;2023-07-30T14:43:46;7.45;;;1.92;;
25980;SDS011;13772;52.996;9.124;2023-07-30T14:46:11;6.53;;;1.52;;
25980;SDS011;13772;52.996;9.124;2023-07-30T14:48:41;6.55;;;2.03;;
25980;SDS011;13772;52.996;9.124;2023-07-30T14:51:07;5.47;;;1.70;;
25980;SDS011;13772;52.996;9.124;2023-07-30T14:53:33;5.65;;;1.48;;
25980;SDS011;13772;52.996;9.124;2023-07-30T14:55:58;8.60;;;1.83;;
25980;SDS011;13772;52.996;9.124;2023-07-30T14:58:23;6.22;;;1.70;;
25980;SDS011;13772;52.996;9.124;2023-07-30T15:00:48;6.25;;;1.48;;
25980;SDS011;13772;52.996;9.124;2023-07-30T15:03:14;4.95;;;1.50;;
25980;SDS011;13772;52.996;9.124;2023-07-30T15:05:39;5.68;;;1.40;;
25980;SDS011;13772;52.996;9.124;2023-07-30T15:08:05;4.15;;;1.42;;
25980;SDS011;13772;52.996;9.124;2023-07-30T15:10:30;5.40;;;1.83;;
25980;SDS011;13772;52.996;9.124;2023-07-30T15:12:55;7.40;;;1.80;;
25980;SDS011;13772;52.996;9.124;2023-07-30T15:15:21;6.65;;;1.63;;
25980;SDS011;13772;52.996;9.124;2023-07-30T15:17:46;5.35;;;1.60;;
25980;SDS011;13772;52.996;9.124;2023-07-30T15:20:11;7.55;;;1.67;;
25980;SDS011;13772;52.996;9.124;2023-07-30T15:22:36;6.38;;;1.70;;
25980;SDS011;13772;52.996;9.124;2023-07-30T15:25:02;4.85;;;1.80;;
25980;SDS011;13772;52.996;9.124;2023-07-30T15:27:28;7.22;;;1.90;;
25980;SDS011;13772;52.996;9.124;2023-07-30T15:29:53;6.60;;;1.75;;
25980;SDS011;13772;52.996;9.124;2023-07-30T15:32:19;5.35;;;1.65;;
25980;SDS011;13772;52.996;9.124;2023-07-30T15:34:44;5.88;;;1.80;;
25980;SDS011;13772;52.996;9.124;2023-07-30T15:37:09;8.07;;;2.30;;
25980;SDS011;13772;52.996;9.124;2023-07-30T15:39:35;7.68;;;1.58;;
25980;SDS011;13772;52.996;9.124;2023-07-30T15:42:05;7.25;;;1.55;;
25980;SDS011;13772;52.996;9.124;2023-07-30T15:44:30;4.15;;;1.33;;
25980;SDS011;13772;52.996;9.124;2023-07-30T15:46:56;4.93;;;1.00;;
25980;SDS011;13772;52.996;9.124;2023-07-30T15:49:21;4.47;;;1.65;;
25980;SDS011;13772;52.996;9.124;2023-07-30T15:51:47;12.93;;;2.03;;
25980;SDS011;13772;52.996;9.124;2023-07-30T15:54:13;6.93;;;1.83;;
25980;SDS011;13772;52.996;9.124;2023-07-30T15:56:38;8.57;;;2.13;;
25980;SDS011;13772;52.996;9.124;2023-07-30T15:59:04;7.85;;;1.77;;
25980;SDS011;13772;52.996;9.124;2023-07-30T16:01:29;3.08;;;1.30;;
25980;SDS011;13772;52.996;9.124;2023-07-30T16:03:54;4.28;;;1.60;;
25980;SDS011;13772;52.996;9.124;2023-07-30T16:06:22;5.30;;;1.30;;
25980;SDS011;13772;52.996;9.124;2023-07-30T16:08:47;3.97;;;0.90;;
25980;SDS011;13772;52.996;9.124;2023-07-30T16:11:12;6.30;;;1.40;;
25980;SDS011;13772;52.996;9.124;2023-07-30T16:13:38;4.38;;;1.48;;
25980;SDS011;13772;52.996;9.124;2023-07-30T16:16:07;6.63;;;1.70;;
25980;SDS011;13772;52.996;9.124;2023-07-30T16:18:33;5.35;;;1.52;;
25980;SDS011;13772;52.996;9.124;2023-07-30T16:21:04;4.03;;;1.25;;
25980;SDS011;13772;52.996;9.124;2023-07-30T16:23:30;5.63;;;1.27;;
25980;SDS011;13772;52.996;9.124;2023-07-30T16:25:55;3.60;;;1.10;;
25980;SDS011;13772;52.996;9.124;2023-07-30T16:28:20;4.45;;;1.33;;
25980;SDS011;13772;52.996;9.124;2023-07-30T16:30:46;8.40;;;1.50;;
25980;SDS011;13772;52.996;9.124;2023-07-30T16:33:11;8.05;;;1.50;;
25980;SDS011;13772;52.996;9.124;2023-07-30T16:35:37;5.35;;;1.55;;
25980;SDS011;13772;52.996;9.124;2023-07-30T16:38:02;8.18;;;2.63;;
25980;SDS011;13772;52.996;9.124;2023-07-30T16:40:29;7.97;;;1.80;;
25980;SDS011;13772;52.996;9.124;2023-07-30T16:42:54;8.57;;;1.75;;
25980;SDS011;13772;52.996;9.124;2023-07-30T16:45:20;5.47;;;1.70;;
25980;SDS011;13772;52.996;9.124;2023-07-30T16:47:46;4.55;;;1.90;;
25980;SDS011;13772;52.996;9.124;2023-07-30T16:50:11;7.95;;;1.50;;
25980;SDS011;13772;52.996;9.124;2023-07-30T16:52:36;4.30;;;1.15;;
25980;SDS011;13772;52.996;9.124;2023-07-30T16:55:01;8.57;;;1.08;;
25980;SDS011;13772;52.996;9.124;2023-07-30T16:57:27;4.65;;;1.00;;
25980;SDS011;13772;52.996;9.124;2023-07-30T16:59:54;7.57;;;1.30;;
25980;SDS011;13772;52.996;9.124;2023-07-30T17:02:19;4.13;;;1.67;;
25980;SDS011;13772;52.996;9.124;2023-07-30T17:04:46;5.25;;;1.42;;
25980;SDS011;13772;52.996;9.124;2023-07-30T17:07:11;7.65;;;1.58;;
25980;SDS011;13772;52.996;9.124;2023-07-30T17:09:37;5.22;;;1.10;;
25980;SDS011;13772;52.996;9.124;2023-07-30T17:12:02;4.72;;;1.27;;
25980;SDS011;13772;52.996;9.124;2023-07-30T17:14:30;8.00;;;1.25;;
25980;SDS011;13772;52.996;9.124;2023-07-30T17:16:56;6.22;;;1.15;;
25980;SDS011;13772;52.996;9.124;2023-07-30T17:19:21;3.85;;;1.50;;
25980;SDS011;13772;52.996;9.124;2023-07-30T17:21:47;7.40;;;1.60;;
25980;SDS011;13772;52.996;9.124;2023-07-30T17:24:12;6.85;;;1.55;;
25980;SDS011;13772;52.996;9.124;2023-07-30T17:26:38;8.20;;;2.13;;
25980;SDS011;13772;52.996;9.124;2023-07-30T17:29:03;5.35;;;1.20;;
25980;SDS011;13772;52.996;9.124;2023-07-30T17:31:28;11.40;;;2.03;;
25980;SDS011;13772;52.996;9.124;2023-07-30T17:33:54;4.97;;;1.30;;
25980;SDS011;13772;52.996;9.124;2023-07-30T17:36:19;11.07;;;1.83;;
25980;SDS011;13772;52.996;9.124;2023-07-30T17:38:44;5.32;;;1.23;;
25980;SDS011;13772;52.996;9.124;2023-07-30T17:41:09;6.78;;;1.38;;
25980;SDS011;13772;52.996;9.124;2023-07-30T17:43:35;4.93;;;1.27;;
25980;SDS011;13772;52.996;9.124;2023-07-30T17:46:04;4.75;;;1.00;;
25980;SDS011;13772;52.996;9.124;2023-07-30T17:48:29;4.20;;;1.38;;
25980;SDS011;13772;52.996;9.124;2023-07-30T17:50:55;2.42;;;0.77;;
25980;SDS011;13772;52.996;9.124;2023-07-30T17:53:20;6.10;;;1.10;;
25980;SDS011;13772;52.996;9.124;2023-07-30T17:55:46;3.90;;;1.35;;
25980;SDS011;13772;52.996;9.124;2023-07-30T17:58:11;3.45;;;0.95;;
25980;SDS011;13772;52.996;9.124;2023-07-30T18:00:43;5.25;;;1.23;;
25980;SDS011;13772;52.996;9.124;2023-07-30T18:03:09;3.53;;;1.08;;
25980;SDS011;13772;52.996;9.124;2023-07-30T18:05:34;2.92;;;1.00;;
25980;SDS011;13772;52.996;9.124;2023-07-30T18:08:00;3.80;;;1.17;;
25980;SDS011;13772;52.996;9.124;2023-07-30T18:10:25;3.13;;;0.80;;
25980;SDS011;13772;52.996;9.124;2023-07-30T18:12:50;7.35;;;1.33;;
25980;SDS011;13772;52.996;9.124;2023-07-30T18:15:17;2.40;;;0.82;;
25980;SDS011;13772;52.996;9.124;2023-07-30T18:17:42;5.28;;;1.08;;
25980;SDS011;13772;52.996;9.124;2023-07-30T18:20:07;7.40;;;1.10;;
25980;SDS011;13772;52.996;9.124;2023-07-30T18:22:33;5.60;;;1.10;;
25980;SDS011;13772;52.996;9.124;2023-07-30T18:24:58;3.78;;;0.80;;
25980;SDS011;13772;52.996;9.124;2023-07-30T18:27:24;5.88;;;1.00;;
25980;SDS011;13772;52.996;9.124;2023-07-30T18:29:49;4.07;;;1.10;;
25980;SDS011;13772;52.996;9.124;2023-07-30T18:32:15;4.57;;;0.95;;
25980;SDS011;13772;52.996;9.124;2023-07-30T18:34:40;13.00;;;1.25;;
25980;SDS011;13772;52.996;9.124;2023-07-30T18:37:05;4.75;;;1.10;;
25980;SDS011;13772;52.996;9.124;2023-07-30T18:39:31;19.40;;;1.70;;
25980;SDS011;13772;52.996;9.124;2023-07-30T18:41:57;4.15;;;1.27;;
25980;SDS011;13772;52.996;9.124;2023-07-30T18:44:22;4.97;;;1.20;;
25980;SDS011;13772;52.996;9.124;2023-07-30T18:46:47;3.47;;;1.38;;
25980;SDS011;13772;52.996;9.124;2023-07-30T18:49:13;6.80;;;1.15;;
25980;SDS011;13772;52.996;9.124;2023-07-30T18:51:38;5.15;;;1.10;;
25980;SDS011;13772;52.996;9.124;2023-07-30T18:54:03;3.75;;;0.95;;
25980;SDS011;13772;52.996;9.124;2023-07-30T18:56:29;4.38;;;1.00;;
25980;SDS011;13772;52.996;9.124;2023-07-30T18:58:54;3.72;;;1.23;;
25980;SDS011;13772;52.996;9.124;2023-07-30T19:01:19;5.93;;;1.17;;
25980;SDS011;13772;52.996;9.124;2023-07-30T19:03:45;6.70;;;1.27;;
25980;SDS011;13772;52.996;9.124;2023-07-30T19:06:10;3.47;;;1.10;;
25980;SDS011;13772;52.996;9.124;2023-07-30T19:08:35;4.35;;;1.20;;
25980;SDS011;13772;52.996;9.124;2023-07-30T19:11:00;3.03;;;0.93;;
25980;SDS011;13772;52.996;9.124;2023-07-30T19:13:26;10.45;;;1.50;;
25980;SDS011;13772;52.996;9.124;2023-07-30T19:15:52;4.40;;;1.27;;
25980;SDS011;13772;52.996;9.124;2023-07-30T19:18:19;5.97;;;1.23;;
25980;SDS011;13772;52.996;9.124;2023-07-30T19:20:45;5.20;;;1.27;;
25980;SDS011;13772;52.996;9.124;2023-07-30T19:23:11;7.43;;;1.40;;
25980;SDS011;13772;52.996;9.124;2023-07-30T19:25:36;4.65;;;1.13;;
25980;SDS011;13772;52.996;9.124;2023-07-30T19:28:02;6.15;;;1.63;;
25980;SDS011;13772;52.996;9.124;2023-07-30T19:30:31;6.30;;;1.30;;
25980;SDS011;13772;52.996;9.124;2023-07-30T19:32:56;4.07;;;1.40;;
25980;SDS011;13772;52.996;9.124;2023-07-30T19:35:22;4.15;;;1.17;;
25980;SDS011;13772;52.996;9.124;2023-07-30T19:37:47;6.78;;;1.70;;
25980;SDS011;13772;52.996;9.124;2023-07-30T19:40:13;4.93;;;1.45;;
25980;SDS011;13772;52.996;9.124;2023-07-30T19:42:38;5.10;;;1.40;;
25980;SDS011;13772;52.996;9.124;2023-07-30T19:45:03;6.18;;;1.77;;
25980;SDS011;13772;52.996;9.124;2023-07-30T19:47:29;7.30;;;1.63;;
25980;SDS011;13772;52.996;9.124;2023-07-30T19:49:55;4.50;;;1.40;;
25980;SDS011;13772;52.996;9.124;2023-07-30T19:52:20;6.50;;;1.52;;
25980;SDS011;13772;52.996;9.124;2023-07-30T19:54:45;4.13;;;1.38;;
25980;SDS011;13772;52.996;9.124;2023-07-30T19:57:10;8.73;;;1.85;;
25980;SDS011;13772;52.996;9.124;2023-07-30T19:59:36;5.88;;;1.50;;
25980;SDS011;13772;52.996;9.124;2023-07-30T20:02:01;8.93;;;1.80;;
25980;SDS011;13772;52.996;9.124;2023-07-30T20:04:26;4.88;;;1.85;;
25980;SDS011;13772;52.996;9.124;2023-07-30T20:06:52;9.77;;;2.20;;
25980;SDS011;13772;52.996;9.124;2023-07-30T20:09:19;6.57;;;2.08;;
25980;SDS011;13772;52.996;9.124;2023-07-30T20:11:44;6.30;;;1.55;;
25980;SDS011;13772;52.996;9.124;2023-07-30T20:14:09;7.65;;;2.10;;
25980;SDS011;13772;52.996;9.124;2023-07-30T20:16:35;7.03;;;2.10;;
25980;SDS011;13772;52.996;9.124;2023-07-30T20:19:00;11.13;;;2.13;;
25980;SDS011;13772;52.996;9.124;2023-07-30T20:21:25;6.10;;;1.70;;
25980;SDS011;13772;52.996;9.124;2023-07-30T20:23:50;8.32;;;1.95;;
25980;SDS011;13772;52.996;9.124;2023-07-30T20:26:16;7.57;;;1.77;;
25980;SDS011;13772;52.996;9.124;2023-07-30T20:28:42;7.85;;;2.25;;
25980;SDS011;13772;52.996;9.124;2023-07-30T20:31:08;6.60;;;1.90;;
25980;SDS011;13772;52.996;9.124;2023-07-30T20:33:33;7.00;;;1.88;;
25980;SDS011;13772;52.996;9.124;2023-07-30T20:36:00;7.20;;;1.58;;
25980;SDS011;13772;52.996;9.124;2023-07-30T20:38:25;6.85;;;2.25;;
25980;SDS011;13772;52.996;9.124;2023-07-30T20:40:51;6.07;;;1.95;;
25980;SDS011;13772;52.996;9.124;2023-07-30T20:43:16;6.70;;;1.90;;
25980;SDS011;13772;52.996;9.124;2023-07-30T20:45:41;8.23;;;1.80;;
25980;SDS011;13772;52.996;9.124;2023-07-30T20:48:06;6.13;;;1.90;;
25980;SDS011;13772;52.996;9.124;2023-07-30T20:50:32;10.35;;;2.00;;
25980;SDS011;13772;52.996;9.124;2023-07-30T20:52:57;7.13;;;2.13;;
25980;SDS011;13772;52.996;9.124;2023-07-30T20:55:22;9.00;;;2.40;;
25980;SDS011;13772;52.996;9.124;2023-07-30T20:57:48;5.40;;;2.22;;
